Time;durP1;ratioP1;P1;durP2;ratioP2;P2;SDS_P1;SDS_P2;PMS_P1;PMS_P2;Temp;Humidity;BMP_temperature;BMP_pressure;BME280_temperature;BME280_humidity;BME280_pressure;Samples;Min_cycle;Max_cycle;Signal;HPM_P1;HPM_P2
2021/06/15 00:01:14;;;;;;;15.93;11.67;;;;;;;20.13;61.66;100638.34;5043175;28;20504;-69
2021/06/15 00:03:40;;;;;;;16.07;12.70;;;;;;;20.14;61.50;100633.75;5044033;28;20533;-69
2021/06/15 00:06:07;;;;;;;13.80;11.90;;;;;;;20.12;61.60;100635.84;5042824;28;20904;-69
2021/06/15 00:08:34;;;;;;;14.80;11.60;;;;;;;20.07;61.73;100636.41;5043929;28;20752;-69
2021/06/15 00:11:01;;;;;;;14.13;11.53;;;;;;;19.97;61.81;100626.91;5042526;28;20482;-68
2021/06/15 00:13:28;;;;;;;14.83;12.03;;;;;;;19.99;61.93;100632.97;5044333;28;20444;-67
2021/06/15 00:15:55;;;;;;;15.00;12.70;;;;;;;20.12;61.55;100636.66;5043308;28;20561;-66
2021/06/15 00:18:23;;;;;;;12.40;11.20;;;;;;;20.12;61.78;100636.66;5043336;28;20450;-67
2021/06/15 00:20:51;;;;;;;15.40;12.00;;;;;;;20.12;61.73;100644.81;5042278;28;20558;-66
2021/06/15 00:23:19;;;;;;;12.77;11.47;;;;;;;20.02;61.91;100641.56;5042948;28;20498;-66
2021/06/15 00:25:46;;;;;;;17.67;12.37;;;;;;;19.93;62.23;100643.56;5043105;28;20549;-66
2021/06/15 00:28:12;;;;;;;20.10;12.57;;;;;;;19.85;62.25;100643.69;5043769;28;20438;-66
2021/06/15 00:30:39;;;;;;;14.77;11.60;;;;;;;19.79;62.45;100649.03;5042441;28;20493;-66
2021/06/15 00:33:06;;;;;;;12.67;11.30;;;;;;;19.90;62.20;100640.41;5043475;28;20457;-66
2021/06/15 00:35:34;;;;;;;14.13;12.70;;;;;;;19.94;62.50;100647.13;5043029;28;20923;-66
2021/06/15 00:38:01;;;;;;;16.80;12.33;;;;;;;19.78;62.97;100650.91;5043487;28;20465;-66
2021/06/15 00:40:27;;;;;;;13.33;11.63;;;;;;;19.67;62.95;100643.22;5042614;28;20489;-67
2021/06/15 00:42:54;;;;;;;16.50;12.87;;;;;;;19.54;63.73;100643.91;5043797;28;20474;-67
2021/06/15 00:45:23;;;;;;;16.73;12.37;;;;;;;19.52;63.53;100643.28;5042826;28;20454;-67
2021/06/15 00:47:51;;;;;;;15.23;12.53;;;;;;;19.48;64.00;100648.25;5042793;28;20489;-66
2021/06/15 00:50:18;;;;;;;15.33;12.50;;;;;;;19.47;64.19;100653.84;5042098;28;21018;-67
2021/06/15 00:52:46;;;;;;;18.00;13.10;;;;;;;19.39;64.25;100652.09;5042554;28;20461;-67
2021/06/15 00:55:13;;;;;;;14.60;12.83;;;;;;;19.36;64.42;100650.59;5042872;28;20536;-67
2021/06/15 00:57:40;;;;;;;13.20;11.80;;;;;;;19.28;64.58;100645.25;5042801;28;20443;-66
2021/06/15 01:00:08;;;;;;;13.20;11.40;;;;;;;19.24;64.72;100649.38;5042941;28;20480;-67
2021/06/15 01:02:37;;;;;;;15.30;12.30;;;;;;;19.09;65.47;100662.09;5042300;28;20482;-67
2021/06/15 01:05:06;;;;;;;13.97;12.07;;;;;;;19.03;65.52;100660.97;5043167;28;20453;-67
2021/06/15 01:07:37;;;;;;;13.63;12.20;;;;;;;19.06;65.27;100654.31;5042302;28;20577;-66
2021/06/15 01:10:10;;;;;;;13.50;12.10;;;;;;;19.10;65.54;100656.50;5035219;28;20526;-66
2021/06/15 01:12:44;;;;;;;14.97;11.13;;;;;;;19.12;65.06;100657.13;5042078;28;20557;-66
2021/06/15 01:15:13;;;;;;;14.90;10.87;;;;;;;19.03;65.50;100657.44;5042165;28;20533;-66
2021/06/15 01:17:44;;;;;;;16.20;11.37;;;;;;;18.99;65.46;100659.66;5041930;28;20510;-66
2021/06/15 01:20:17;;;;;;;14.27;10.77;;;;;;;18.89;65.81;100657.22;5042265;28;20450;-66
2021/06/15 01:23:01;;;;;;;15.00;12.37;;;;;;;18.86;65.83;100654.88;5042403;28;20443;-66
2021/06/15 01:25:34;;;;;;;13.70;11.50;;;;;;;18.89;65.52;100654.50;5041010;28;20493;-66
2021/06/15 01:28:03;;;;;;;13.40;11.60;;;;;;;18.93;65.60;100654.97;5041889;28;20558;-66
2021/06/15 01:30:33;;;;;;;17.07;11.77;;;;;;;18.88;65.65;100660.13;5041901;28;20533;-66
2021/06/15 01:33:05;;;;;;;14.73;11.77;;;;;;;18.83;66.12;100659.81;5041306;28;20980;-66
2021/06/15 01:35:34;;;;;;;15.40;12.70;;;;;;;18.96;65.51;100662.75;5042000;28;20482;-67
2021/06/15 01:38:04;;;;;;;16.93;13.83;;;;;;;18.99;65.16;100665.06;5041590;28;21030;-66
2021/06/15 01:40:35;;;;;;;19.20;13.30;;;;;;;19.00;65.17;100664.03;5042024;28;20524;-66
2021/06/15 01:43:04;;;;;;;15.40;13.33;;;;;;;18.94;65.54;100660.22;5042491;28;20454;-66
2021/06/15 01:45:33;;;;;;;17.33;14.83;;;;;;;18.93;65.55;100661.22;5042026;28;20486;-66
2021/06/15 01:48:06;;;;;;;17.47;14.83;;;;;;;18.85;65.90;100660.47;5041522;28;20529;-66
2021/06/15 01:50:34;;;;;;;18.73;16.73;;;;;;;18.77;65.94;100658.66;5041455;28;20807;-66
2021/06/15 01:53:01;;;;;;;14.73;13.20;;;;;;;18.73;66.17;100660.03;5041582;28;20521;-66
2021/06/15 01:55:28;;;;;;;15.93;12.90;;;;;;;18.78;66.25;100661.19;5041404;28;20899;-67
2021/06/15 01:57:55;;;;;;;14.67;13.10;;;;;;;18.73;66.21;100665.47;5042337;28;20481;-67
2021/06/15 02:00:24;;;;;;;17.83;13.83;;;;;;;18.74;66.10;100664.44;5040463;28;20477;-67
2021/06/15 02:02:51;;;;;;;15.70;14.00;;;;;;;18.72;66.26;100663.81;5041458;28;20526;-67
2021/06/15 02:05:22;;;;;;;16.80;12.70;;;;;;;18.74;66.19;100670.69;5041915;28;20736;-67
2021/06/15 02:07:49;;;;;;;16.03;14.30;;;;;;;18.59;66.37;100676.09;5042007;28;20557;-67
2021/06/15 02:10:18;;;;;;;19.50;14.07;;;;;;;18.53;66.47;100678.69;5041524;28;20505;-66
2021/06/15 02:12:47;;;;;;;16.80;14.20;;;;;;;18.48;66.85;100684.66;5042031;28;20458;-66
2021/06/15 02:15:15;;;;;;;22.27;16.13;;;;;;;18.48;66.59;100668.41;5041389;28;20907;-67
2021/06/15 02:17:46;;;;;;;21.20;16.10;;;;;;;18.46;66.58;100675.03;5041814;28;20467;-67
2021/06/15 02:20:15;;;;;;;16.03;14.30;;;;;;;18.36;66.85;100676.09;5041876;28;20438;-66
2021/06/15 02:22:43;;;;;;;16.50;14.90;;;;;;;18.29;66.87;100679.72;5041167;28;20467;-66
2021/06/15 02:25:11;;;;;;;16.07;14.43;;;;;;;18.31;67.07;100683.09;5040673;28;20525;-67
2021/06/15 02:27:38;;;;;;;19.13;16.47;;;;;;;18.26;67.44;100686.31;5042128;28;20513;-67
2021/06/15 02:30:06;;;;;;;19.13;16.77;;;;;;;18.17;67.76;100698.25;5041853;28;20541;-67
2021/06/15 02:32:34;;;;;;;23.20;16.77;;;;;;;18.24;67.41;100688.38;5040887;28;20482;-67
2021/06/15 02:35:06;;;;;;;18.77;16.77;;;;;;;18.29;67.17;100685.97;5042374;28;20482;-67
2021/06/15 02:37:35;;;;;;;23.03;17.90;;;;;;;18.28;67.31;100687.00;5041296;28;20472;-67
2021/06/15 02:40:05;;;;;;;24.70;18.57;;;;;;;18.27;67.59;100693.44;5022467;28;20478;-67
2021/06/15 02:42:34;;;;;;;21.07;15.87;;;;;;;18.29;67.28;100691.38;5031949;28;20474;-67
2021/06/15 02:45:01;;;;;;;19.00;17.07;;;;;;;18.22;67.51;100693.97;5043618;28;20449;-67
2021/06/15 02:47:29;;;;;;;24.23;19.90;;;;;;;18.19;67.54;100693.47;5043533;28;20512;-67
2021/06/15 02:49:58;;;;;;;24.47;17.77;;;;;;;18.16;67.67;100692.00;5045436;28;20997;-67
2021/06/15 02:52:35;;;;;;;23.17;18.87;;;;;;;18.25;67.33;100699.03;5044742;28;20478;-66
2021/06/15 02:55:05;;;;;;;22.97;19.73;;;;;;;18.31;67.39;100689.34;5044998;28;20453;-67
2021/06/15 02:57:32;;;;;;;23.33;20.70;;;;;;;18.28;67.58;100695.13;5044964;28;20466;-66
2021/06/15 02:59:59;;;;;;;26.03;22.60;;;;;;;18.26;67.92;100702.56;5045207;28;20513;-67
2021/06/15 03:02:26;;;;;;;24.57;20.80;;;;;;;18.24;67.95;100701.91;5044133;28;20477;-66
2021/06/15 03:04:53;;;;;;;26.90;23.00;;;;;;;18.23;67.86;100706.50;5045717;28;20506;-67
2021/06/15 03:07:20;;;;;;;33.37;22.97;;;;;;;18.11;68.57;100713.34;5044462;28;20506;-67
2021/06/15 03:09:48;;;;;;;34.33;23.87;;;;;;;17.87;69.47;100712.44;5043927;28;20530;-66
2021/06/15 03:12:17;;;;;;;29.50;24.07;;;;;;;17.72;70.05;100714.19;5044465;28;20480;-66
2021/06/15 03:14:47;;;;;;;29.93;23.43;;;;;;;17.58;70.68;100710.34;5045405;28;20506;-67
2021/06/15 03:17:13;;;;;;;27.70;22.87;;;;;;;17.62;70.43;100711.69;5044211;28;20497;-66
2021/06/15 03:19:44;;;;;;;32.50;23.47;;;;;;;17.52;70.49;100716.47;5045292;28;20473;-68
2021/06/15 03:22:13;;;;;;;32.30;22.87;;;;;;;17.62;70.53;100721.66;5044370;28;20505;-68
2021/06/15 03:24:44;;;;;;;27.37;22.30;;;;;;;17.60;70.31;100726.41;5042027;28;20480;-68
2021/06/15 03:27:15;;;;;;;28.87;22.20;;;;;;;17.46;70.77;100736.94;5044201;28;20484;-68
2021/06/15 03:29:42;;;;;;;26.47;23.10;;;;;;;17.76;69.89;100729.06;5044566;28;20449;-68
2021/06/15 03:32:13;;;;;;;23.20;20.70;;;;;;;17.84;69.43;100728.16;5043170;28;20565;-68
2021/06/15 03:34:42;;;;;;;27.73;22.10;;;;;;;17.56;70.01;100731.31;5024751;28;20485;-68
2021/06/15 03:37:11;;;;;;;28.40;21.33;;;;;;;17.88;69.25;100737.66;5041569;28;20509;-68
2021/06/15 03:39:39;;;;;;;23.83;20.10;;;;;;;17.92;69.14;100732.72;5043742;28;20542;-69
2021/06/15 03:42:09;;;;;;;31.70;21.60;;;;;;;18.15;68.25;100725.47;5043076;28;20501;-69
2021/06/15 03:44:37;;;;;;;25.57;20.67;;;;;;;18.37;67.43;100723.00;5044781;28;20506;-69
2021/06/15 03:47:04;;;;;;;27.27;20.70;;;;;;;18.40;67.12;100728.00;5043009;28;20597;-69
2021/06/15 03:49:31;;;;;;;26.27;20.33;;;;;;;18.58;66.64;100733.16;5043947;28;20478;-68
2021/06/15 03:52:00;;;;;;;26.37;19.80;;;;;;;18.84;65.39;100735.50;5043270;28;20485;-69
2021/06/15 03:54:28;;;;;;;30.33;21.23;;;;;;;19.20;64.47;100734.81;5043804;28;20453;-69
2021/06/15 03:56:56;;;;;;;25.00;20.10;;;;;;;19.40;63.17;100728.84;5043486;28;20516;-69
2021/06/15 03:59:26;;;;;;;28.73;19.07;;;;;;;19.82;62.13;100732.78;5044652;28;20495;-69
2021/06/15 04:01:56;;;;;;;24.67;18.20;;;;;;;19.92;61.48;100730.59;5042926;28;20524;-69
2021/06/15 04:04:23;;;;;;;22.47;18.27;;;;;;;20.02;60.94;100731.16;5044301;28;21010;-69
2021/06/15 04:06:52;;;;;;;22.63;18.47;;;;;;;20.19;60.22;100742.63;5043381;28;20550;-69
2021/06/15 04:09:21;;;;;;;22.30;16.80;;;;;;;20.38;59.80;100743.88;5043073;28;20493;-69
2021/06/15 04:11:48;;;;;;;23.63;17.27;;;;;;;20.48;59.41;100741.69;5042969;28;20492;-69
2021/06/15 04:14:16;;;;;;;21.17;17.30;;;;;;;20.60;58.75;100752.84;5044141;28;20465;-69
2021/06/15 04:16:43;;;;;;;24.17;17.80;;;;;;;20.50;59.03;100755.03;5043274;28;20512;-68
2021/06/15 04:19:16;;;;;;;22.53;16.90;;;;;;;20.41;59.27;100759.75;5043552;28;20880;-69
2021/06/15 04:21:45;;;;;;;19.53;16.47;;;;;;;20.27;59.85;100758.78;5043754;28;20486;-69
2021/06/15 04:24:14;;;;;;;19.20;16.90;;;;;;;19.99;60.52;100758.66;5042665;28;20518;-69
2021/06/15 04:26:41;;;;;;;23.03;17.60;;;;;;;19.66;61.64;100752.78;5043103;28;20508;-69
2021/06/15 04:29:10;;;;;;;19.93;17.70;;;;;;;19.69;61.72;100753.25;5036418;28;20522;-68
2021/06/15 04:31:37;;;;;;;18.70;15.97;;;;;;;20.28;60.26;100755.03;5035439;28;20592;-69
2021/06/15 04:34:04;;;;;;;19.20;15.60;;;;;;;21.32;56.97;100756.41;5037589;28;20554;-70
2021/06/15 04:36:33;;;;;;;21.77;16.73;;;;;;;22.58;53.59;100754.44;5043011;28;20576;-70
2021/06/15 04:39:01;;;;;;;18.17;13.00;;;;;;;23.09;51.16;100756.59;5043147;28;20640;-70
2021/06/15 04:41:31;;;;;;;16.33;14.30;;;;;;;24.29;47.81;100753.53;5042533;28;20514;-71
2021/06/15 04:44:02;;;;;;;22.43;15.03;;;;;;;24.28;47.64;100768.22;5041954;28;20458;-71
2021/06/15 04:46:33;;;;;;;14.70;13.20;;;;;;;23.56;49.31;100757.38;5042539;28;20478;-70
2021/06/15 04:49:03;;;;;;;16.30;13.53;;;;;;;23.38;49.57;100757.19;5042352;28;20565;-70
2021/06/15 04:51:33;;;;;;;24.93;14.47;;;;;;;23.28;50.01;100757.66;5042573;28;20531;-70
2021/06/15 04:54:01;;;;;;;19.87;14.93;;;;;;;22.91;50.67;100763.50;5040565;28;20470;-69
2021/06/15 04:56:29;;;;;;;17.43;15.57;;;;;;;22.62;51.65;100766.59;5039609;28;20474;-70
2021/06/15 04:58:56;;;;;;;16.60;14.30;;;;;;;23.37;49.83;100763.72;5043055;28;20813;-71
2021/06/15 05:01:23;;;;;;;17.27;13.90;;;;;;;24.84;46.54;100768.53;5042333;28;20474;-72
2021/06/15 05:03:50;;;;;;;22.17;14.83;;;;;;;25.70;43.96;100786.06;5043264;28;20530;-71
2021/06/15 05:06:17;;;;;;;19.90;15.27;;;;;;;24.30;46.53;100787.13;5042575;28;20477;-73
2021/06/15 05:08:48;;;;;;;16.30;13.53;;;;;;;24.39;46.81;100781.22;5041910;28;20528;-74
2021/06/15 05:11:15;;;;;;;19.07;14.80;;;;;;;23.91;47.91;100789.84;5041845;28;20506;-72
2021/06/15 05:13:44;;;;;;;20.27;15.17;;;;;;;24.86;45.85;100791.88;5042942;28;20481;-72
2021/06/15 05:16:12;;;;;;;16.40;13.93;;;;;;;25.27;44.63;100785.00;5042449;28;20501;-71
2021/06/15 05:18:39;;;;;;;17.20;13.53;;;;;;;25.44;43.52;100788.00;5042968;28;20458;-69
2021/06/15 05:21:12;;;;;;;16.90;14.03;;;;;;;25.33;43.83;100796.97;5041805;28;20498;-74
2021/06/15 05:23:41;;;;;;;15.13;13.00;;;;;;;27.22;39.58;100789.63;5042300;28;20529;-72
2021/06/15 05:26:10;;;;;;;16.40;12.17;;;;;;;26.21;41.16;100800.44;5044324;28;20474;-76
2021/06/15 05:28:36;;;;;;;15.77;13.30;;;;;;;24.67;44.84;100801.03;5042311;28;20486;-70
2021/06/15 05:31:03;;;;;;;17.47;12.20;;;;;;;24.25;46.41;100794.09;5041375;28;20513;-72
2021/06/15 05:33:29;;;;;;;17.60;11.97;;;;;;;24.28;45.84;100790.09;5042564;28;20541;-71
2021/06/15 05:35:56;;;;;;;15.60;13.10;;;;;;;25.75;42.78;100795.25;5042102;28;20557;-72
2021/06/15 05:38:23;;;;;;;15.00;12.30;;;;;;;26.59;40.63;100785.56;5041957;28;20458;-71
2021/06/15 05:40:49;;;;;;;13.33;11.90;;;;;;;26.40;40.71;100810.28;5041498;28;20569;-71
2021/06/15 05:43:17;;;;;;;14.90;13.30;;;;;;;27.10;39.46;100799.78;5041784;28;20533;-71
2021/06/15 05:45:44;;;;;;;17.03;12.77;;;;;;;27.26;39.66;100807.31;5041755;28;20553;-71
2021/06/15 05:48:11;;;;;;;13.37;11.97;;;;;;;27.16;39.05;100801.56;5048232;28;20493;-73
2021/06/15 05:50:38;;;;;;;13.20;11.13;;;;;;;26.89;39.95;100815.75;5046863;28;20493;-70
2021/06/15 05:53:04;;;;;;;12.77;11.10;;;;;;;26.84;39.58;100804.63;5031337;28;20492;-70
2021/06/15 05:55:31;;;;;;;15.67;11.77;;;;;;;26.05;40.97;100813.69;5041476;28;20494;-70
2021/06/15 05:57:58;;;;;;;12.23;10.13;;;;;;;25.52;42.20;100809.63;5042519;28;20434;-69
2021/06/15 06:00:26;;;;;;;12.77;10.37;;;;;;;26.05;42.03;100805.47;5041264;28;20483;-70
2021/06/15 06:02:52;;;;;;;18.50;11.50;;;;;;;26.37;41.28;100801.69;5042159;28;20480;-69
2021/06/15 06:08:08;;;;;;;12.23;10.40;;;;;;;25.67;42.10;100811.16;5040511;28;20493;-70
2021/06/15 06:10:36;;;;;;;19.53;14.17;;;;;;;24.57;45.27;100805.09;5041593;28;20497;-69
2021/06/15 06:13:04;;;;;;;14.00;12.33;;;;;;;23.51;48.20;100811.75;5042352;28;20468;-70
2021/06/15 06:15:32;;;;;;;13.63;12.23;;;;;;;23.80;48.11;100818.63;5041364;28;20465;-69
2021/06/15 06:18:07;;;;;;;19.53;13.40;;;;;;;23.70;48.69;100818.22;5035239;28;20493;-69
2021/06/15 06:20:34;;;;;;;18.67;11.57;;;;;;;25.48;43.88;100824.81;5039260;28;20473;-69
2021/06/15 06:23:01;;;;;;;13.93;11.10;;;;;;;27.01;40.09;100827.59;5043010;28;20525;-70
2021/06/15 06:25:28;;;;;;;12.27;10.97;;;;;;;25.88;41.99;100829.03;5045450;28;20528;-69
2021/06/15 06:27:55;;;;;;;13.17;10.63;;;;;;;27.09;39.62;100828.31;5045369;28;20489;-70
2021/06/15 06:30:23;;;;;;;12.43;10.40;;;;;;;26.87;39.48;100834.31;5038646;28;20462;-69
2021/06/15 06:32:51;;;;;;;13.40;11.30;;;;;;;23.68;46.31;100833.97;5034869;28;20832;-69
2021/06/15 06:35:18;;;;;;;12.90;11.13;;;;;;;23.83;46.79;100831.03;5045066;28;20443;-70
2021/06/15 06:37:44;;;;;;;12.23;10.20;;;;;;;24.18;46.54;100827.97;5045400;28;20442;-70
2021/06/15 06:40:13;;;;;;;15.60;12.17;;;;;;;23.87;47.13;100837.75;5045020;28;20489;-69
2021/06/15 06:42:40;;;;;;;14.53;11.80;;;;;;;23.36;48.95;100830.22;5044233;28;20456;-69
2021/06/15 06:45:08;;;;;;;12.87;11.47;;;;;;;22.97;49.71;100826.41;5045047;28;20438;-69
2021/06/15 06:47:35;;;;;;;13.57;12.13;;;;;;;22.75;50.69;100816.53;5044987;28;20963;-69
2021/06/15 06:50:05;;;;;;;15.83;11.17;;;;;;;22.92;49.76;100821.59;5045339;28;20894;-69
2021/06/15 06:52:31;;;;;;;15.57;11.00;;;;;;;22.64;50.44;100819.03;5044900;28;20459;-69
2021/06/15 06:54:58;;;;;;;13.40;10.27;;;;;;;22.84;49.75;100824.50;5044949;28;20450;-69
2021/06/15 06:57:25;;;;;;;11.77;10.13;;;;;;;22.69;50.19;100821.97;5044656;28;20474;-69
2021/06/15 06:59:51;;;;;;;15.27;10.20;;;;;;;22.25;50.84;100828.72;5045453;28;20469;-69
2021/06/15 07:02:18;;;;;;;12.13;9.30;;;;;;;22.43;50.85;100828.19;5043001;28;20473;-69
2021/06/15 07:04:45;;;;;;;14.63;8.70;;;;;;;21.51;53.06;100835.63;5045538;28;20434;-69
2021/06/15 07:07:13;;;;;;;14.90;9.70;;;;;;;20.67;55.86;100832.56;5044721;28;20486;-69
2021/06/15 07:09:39;;;;;;;13.53;9.47;;;;;;;21.01;55.18;100828.31;5043920;28;20529;-69
2021/06/15 07:12:07;;;;;;;14.70;9.90;;;;;;;21.30;54.43;100828.34;5043893;28;20505;-69
2021/06/15 07:14:34;;;;;;;11.10;9.27;;;;;;;21.41;53.74;100838.69;5045124;28;20472;-69
2021/06/15 07:17:00;;;;;;;15.00;9.93;;;;;;;21.35;54.34;100828.59;5043672;28;20474;-69
2021/06/15 07:19:27;;;;;;;15.83;9.30;;;;;;;21.92;52.73;100837.56;5045181;28;20426;-69
2021/06/15 07:21:54;;;;;;;11.00;8.70;;;;;;;22.24;51.91;100844.22;5043996;28;20540;-69
2021/06/15 07:24:22;;;;;;;11.40;8.20;;;;;;;22.44;50.37;100833.44;5044101;28;20461;-69
2021/06/15 07:26:48;;;;;;;10.80;9.47;;;;;;;21.31;53.35;100849.91;5044441;28;20964;-69
2021/06/15 07:29:15;;;;;;;15.17;8.33;;;;;;;21.72;52.78;100842.91;5031571;28;20522;-69
2021/06/15 07:31:42;;;;;;;10.03;7.93;;;;;;;22.22;51.34;100845.47;5022645;28;20549;-70
2021/06/15 07:34:08;;;;;;;10.53;8.73;;;;;;;22.50;50.23;100835.34;5023767;28;20448;-69
2021/06/15 07:36:35;;;;;;;15.97;8.97;;;;;;;22.86;49.54;100845.09;5023837;28;20491;-69
2021/06/15 07:39:01;;;;;;;11.00;8.10;;;;;;;22.63;49.93;100847.31;5039491;28;20477;-68
2021/06/15 07:41:29;;;;;;;15.43;9.40;;;;;;;22.59;49.48;100846.06;5037412;28;20478;-69
2021/06/15 07:43:56;;;;;;;13.90;8.50;;;;;;;22.68;50.84;100861.19;5042286;28;20519;-69
2021/06/15 07:46:23;;;;;;;14.17;8.90;;;;;;;22.68;49.85;100856.56;5042906;28;20541;-69
2021/06/15 07:48:51;;;;;;;12.63;9.00;;;;;;;22.30;51.16;100858.94;5042130;28;20540;-69
2021/06/15 07:51:18;;;;;;;10.97;9.80;;;;;;;21.92;51.78;100867.53;5042682;28;20478;-69
2021/06/15 07:53:45;;;;;;;14.27;10.27;;;;;;;21.31;54.09;100863.50;5043256;28;20541;-70
2021/06/15 07:56:11;;;;;;;14.13;9.00;;;;;;;21.41;53.82;100876.78;5029994;28;20542;-69
2021/06/15 07:58:40;;;;;;;13.23;11.00;;;;;;;21.00;55.13;100880.16;5023403;28;20424;-69
2021/06/15 08:01:07;;;;;;;15.43;10.23;;;;;;;21.23;54.75;100877.22;5040112;28;20473;-68
2021/06/15 08:03:34;;;;;;;17.20;12.50;;;;;;;20.57;56.86;100877.34;5042324;28;20458;-69
2021/06/15 08:06:00;;;;;;;16.67;12.07;;;;;;;20.73;56.49;100885.31;5042677;28;20741;-69
2021/06/15 08:08:27;;;;;;;16.43;13.27;;;;;;;20.82;56.48;100883.31;5043048;28;20513;-69
2021/06/15 08:10:55;;;;;;;14.60;11.03;;;;;;;20.92;55.90;100878.41;5040922;28;20504;-68
2021/06/15 08:13:21;;;;;;;16.23;11.13;;;;;;;20.50;57.08;100891.72;5042661;28;20744;-69
2021/06/15 08:15:50;;;;;;;16.20;11.47;;;;;;;20.19;58.30;100886.50;5042045;28;20556;-68
2021/06/15 08:18:18;;;;;;;13.97;8.77;;;;;;;20.98;55.90;100891.22;5042354;28;20445;-69
2021/06/15 08:20:45;;;;;;;9.23;8.17;;;;;;;20.77;56.44;100889.31;5042031;28;20561;-69
2021/06/15 08:23:12;;;;;;;12.83;7.43;;;;;;;20.18;58.17;100895.66;5041746;28;20530;-69
2021/06/15 08:25:39;;;;;;;10.13;6.70;;;;;;;19.84;57.71;100886.22;5041596;28;20558;-69
2021/06/15 08:28:06;;;;;;;14.27;7.43;;;;;;;19.92;57.84;100888.00;5042625;28;20982;-68
2021/06/15 08:30:33;;;;;;;11.43;5.67;;;;;;;20.22;56.31;100890.69;5041741;28;20472;-69
2021/06/15 08:33:01;;;;;;;10.47;4.77;;;;;;;20.95;54.08;100888.03;5041447;28;21027;-69
2021/06/15 08:35:28;;;;;;;9.17;6.10;;;;;;;21.20;53.47;100886.63;5041658;28;20470;-70
2021/06/15 08:37:54;;;;;;;9.67;3.80;;;;;;;21.70;51.94;100889.38;5041605;28;20454;-68
2021/06/15 08:40:21;;;;;;;11.37;4.40;;;;;;;23.08;47.57;100888.56;5021206;28;20451;-69
2021/06/15 08:42:48;;;;;;;8.23;3.93;;;;;;;22.65;47.83;100883.38;5021221;28;20459;-69
2021/06/15 08:45:16;;;;;;;9.13;3.23;;;;;;;24.30;45.36;100891.81;5021255;28;20526;-68
2021/06/15 08:47:44;;;;;;;9.23;3.40;;;;;;;24.91;41.68;100897.84;5021979;28;20565;-69
2021/06/15 08:50:14;;;;;;;5.40;2.70;;;;;;;25.15;40.67;100894.34;5021323;28;20537;-69
2021/06/15 08:52:42;;;;;;;9.97;3.40;;;;;;;24.34;41.58;100903.13;5022561;28;20869;-70
2021/06/15 08:55:09;;;;;;;6.13;3.10;;;;;;;24.49;41.61;100895.50;5041304;28;20496;-69
2021/06/15 08:57:37;;;;;;;6.50;3.23;;;;;;;25.11;42.26;100895.00;5042388;28;20466;-70
2021/06/15 09:00:05;;;;;;;6.93;3.30;;;;;;;24.20;41.91;100894.16;5036388;28;20478;-69
2021/06/15 09:02:32;;;;;;;8.30;3.30;;;;;;;24.54;42.06;100903.09;5021491;28;20487;-69
2021/06/15 09:04:58;;;;;;;5.90;2.87;;;;;;;25.08;40.29;100890.78;5021957;28;20478;-70
2021/06/15 09:07:26;;;;;;;4.80;2.80;;;;;;;24.35;42.36;100888.44;5022083;28;20478;-70
2021/06/15 09:09:53;;;;;;;4.90;2.50;;;;;;;24.69;40.73;100887.25;5040116;28;20493;-70
2021/06/15 09:12:21;;;;;;;3.43;1.90;;;;;;;25.72;39.77;100890.72;5041104;28;20477;-70
2021/06/15 09:14:50;;;;;;;5.00;2.40;;;;;;;25.09;40.79;100887.00;5042014;28;20442;-69
2021/06/15 09:17:18;;;;;;;8.33;2.07;;;;;;;25.67;38.43;100885.94;5040355;28;20484;-70
2021/06/15 09:19:46;;;;;;;4.53;3.13;;;;;;;26.14;37.59;100880.00;5041508;28;20438;-70
2021/06/15 09:22:24;;;;;;;3.87;2.57;;;;;;;24.23;40.93;100880.94;5032366;28;20471;-70
2021/06/15 09:24:53;;;;;;;3.77;2.90;;;;;;;24.13;42.66;100879.69;5039424;28;20533;-70
2021/06/15 09:27:20;;;;;;;8.60;2.70;;;;;;;25.32;40.68;100886.44;5041248;28;20505;-70
2021/06/15 09:29:49;;;;;;;8.13;3.10;;;;;;;24.72;41.09;100873.16;5040664;28;20501;-69
2021/06/15 09:32:19;;;;;;;8.40;3.67;;;;;;;23.66;43.47;100871.56;5040927;28;20477;-70
2021/06/15 09:34:52;;;;;;;6.70;3.23;;;;;;;24.61;41.83;100871.09;5041327;28;20435;-68
2021/06/15 09:37:27;;;;;;;8.20;3.13;;;;;;;25.54;40.06;100875.13;5040344;28;20493;-70
2021/06/15 09:39:55;;;;;;;5.97;3.00;;;;;;;26.54;39.07;100884.16;5031411;28;20516;-70
2021/06/15 09:42:22;;;;;;;6.80;3.70;;;;;;;25.58;40.57;100879.06;5040547;28;20505;-70
2021/06/15 09:44:48;;;;;;;6.37;3.07;;;;;;;26.67;38.39;100878.53;5041485;28;20904;-70
2021/06/15 09:47:15;;;;;;;10.27;5.17;;;;;;;24.91;41.79;100867.78;5027348;28;20962;-70
2021/06/15 09:49:43;;;;;;;9.10;3.90;;;;;;;24.91;42.34;100865.91;5021190;28;20498;-70
2021/06/15 09:52:15;;;;;;;7.63;3.80;;;;;;;25.72;39.83;100868.81;5020628;28;20489;-70
2021/06/15 09:54:43;;;;;;;7.33;3.67;;;;;;;26.04;39.07;100872.31;5037298;28;20461;-70
2021/06/15 09:57:13;;;;;;;12.60;4.67;;;;;;;27.33;37.46;100870.38;5040815;28;20481;-70
2021/06/15 09:59:58;;;;;;;8.87;3.83;;;;;;;28.55;34.66;100872.28;5028286;28;20439;-70
2021/06/15 10:02:25;;;;;;;6.67;3.77;;;;;;;29.31;33.26;100873.13;5030893;28;20478;-69
2021/06/15 10:04:52;;;;;;;6.60;3.80;;;;;;;30.10;31.64;100874.88;5041544;28;20411;-70
2021/06/15 10:07:25;;;;;;;11.27;4.03;;;;;;;29.28;32.58;100878.03;5040721;28;20466;-70
2021/06/15 10:09:53;;;;;;;8.70;3.67;;;;;;;28.49;34.29;100880.69;5040004;28;20490;-70
2021/06/15 10:12:21;;;;;;;8.10;3.40;;;;;;;28.35;34.23;100880.13;5040393;28;20558;-71
2021/06/15 10:14:48;;;;;;;9.97;3.83;;;;;;;27.16;36.90;100876.53;5040764;28;20442;-71
2021/06/15 10:17:14;;;;;;;8.50;4.23;;;;;;;27.23;35.99;100870.94;5039227;28;20470;-69
2021/06/15 10:19:42;;;;;;;7.90;4.27;;;;;;;28.39;33.72;100870.31;5040782;28;20470;-68
2021/06/15 10:22:09;;;;;;;4.63;3.40;;;;;;;28.55;33.19;100869.53;5039729;28;20530;-70
2021/06/15 10:24:36;;;;;;;8.03;3.37;;;;;;;28.84;32.78;100864.03;5039741;28;20473;-70
2021/06/15 10:27:04;;;;;;;6.43;3.23;;;;;;;28.53;33.49;100876.34;5038146;28;20478;-71
2021/06/15 10:29:32;;;;;;;6.00;2.70;;;;;;;29.29;32.47;100870.63;5025423;28;20512;-69
2021/06/15 10:31:59;;;;;;;5.70;3.87;;;;;;;29.04;32.23;100874.59;5019474;28;20554;-69
2021/06/15 10:34:49;;;;;;;6.37;4.70;;;;;;;28.70;32.52;100868.19;5021494;28;20511;-69
2021/06/15 10:37:45;;;;;;;12.77;4.90;;;;;;;27.17;36.57;100861.72;5019934;28;20510;-69
2021/06/15 10:40:43;;;;;;;5.70;3.93;;;;;;;27.28;35.11;100868.34;5028860;28;20481;-67
2021/06/15 10:43:15;;;;;;;6.20;3.27;;;;;;;27.90;33.89;100867.88;5032007;28;20551;-71
2021/06/15 10:45:44;;;;;;;5.43;3.20;;;;;;;28.28;32.93;100868.41;5039676;28;20489;-71
2021/06/15 10:48:40;;;;;;;7.20;3.40;;;;;;;28.28;33.33;100868.41;5040822;28;20464;-69
2021/06/15 10:51:19;;;;;;;7.40;3.67;;;;;;;28.26;35.75;100865.06;5030948;28;20477;-71
2021/06/15 10:53:46;;;;;;;7.13;3.60;;;;;;;29.07;33.23;100862.25;5039412;28;20531;-69
2021/06/15 10:56:14;;;;;;;7.00;4.70;;;;;;;28.31;35.40;100862.44;5040485;28;20474;-69
2021/06/15 10:59:06;;;;;;;7.67;3.93;;;;;;;29.45;32.02;100855.19;5040911;28;20458;-70
2021/06/15 11:01:36;;;;;;;5.73;3.40;;;;;;;28.96;33.28;100858.47;5038612;28;20484;-71
2021/06/15 11:04:04;;;;;;;6.83;3.97;;;;;;;28.55;32.91;100860.47;5040137;28;20461;-70
2021/06/15 11:06:41;;;;;;;4.83;3.20;;;;;;;28.49;35.08;100862.25;5042268;28;20473;-70
2021/06/15 11:09:22;;;;;;;7.53;2.67;;;;;;;28.37;33.02;100866.97;5043225;28;20835;-70
2021/06/15 11:11:50;;;;;;;4.00;2.43;;;;;;;28.15;33.71;100853.88;5043616;28;20649;-71
2021/06/15 11:14:19;;;;;;;4.30;2.30;;;;;;;28.01;32.13;100863.47;5044310;28;20426;-69
2021/06/15 11:16:48;;;;;;;5.50;2.40;;;;;;;27.46;33.77;100850.09;5033853;28;20565;-70
2021/06/15 11:19:31;;;;;;;4.20;2.27;;;;;;;28.70;32.66;100858.00;5025097;28;20435;-70
2021/06/15 11:22:00;;;;;;;5.70;2.67;;;;;;;28.44;33.00;100853.91;5042621;28;20482;-70
2021/06/15 11:24:28;;;;;;;4.93;2.10;;;;;;;27.82;34.03;100857.25;5042952;28;20462;-71